Latest Weather Observations for Mareeba

IDQ60801

Issued at 11:02 pm EST Thursday 11 February 2016 (issued every 30 minutes, with the page automatically refreshed every 10 minutes)

About weather observations | Map of weather stations | Latest weather observations for QLD | Other Formats
Station Details ID: 031210 Name: MAREEBA AIRPORT Lat: -17.07 Lon: 145.43 Height: 471.93 m
Data from the previous 72 hours. | See also: Recent months at Mareeba
Date/Time
EST
Temp
°C
App
Temp
°C
Dew
Point
Rel
Hum
%
Delta-T
°C
Wind Press
QNH
hPa
Press
MSL
hPa
Rain
since 9 am
mm
Dir
 
Spd
km/h
Gust
km/h
Spd
kts
Gust
kts
11/11:00pm 23.0 24.6 20.0 83 2.0 SSE 11 15 6 8 1012.2 - 16.6
11/10:30pm 22.8 25.0 20.5 87 1.5 SSE 9 13 5 7 1012.2 - 16.6
11/10:00pm 22.6 27.3 21.9 96 0.5 CALM 0 0 0 0 1012.3 - 16.6
11/09:30pm 22.5 25.7 21.7 95 0.5 WSW 7 9 4 5 1012.3 - 16.6
11/09:00pm 22.8 27.4 21.8 94 0.7 CALM 0 6 0 3 1011.9 1008.7 16.6
11/08:30pm 23.0 27.7 22.0 94 0.7 CALM 0 0 0 0 1011.8 - 16.6
11/08:00pm 23.0 27.6 21.8 93 0.8 CALM 0 0 0 0 1011.4 - 16.6
11/07:30pm 23.0 27.6 21.8 93 0.8 CALM 0 0 0 0 1011.0 - 16.6
11/07:00pm 22.9 26.6 21.5 92 0.9 NNW 4 7 2 4 1010.6 - 16.6
11/06:30pm 23.0 26.2 21.3 90 1.1 NW 6 9 3 5 1010.4 - 16.6
11/06:00pm 23.5 26.5 21.2 87 1.5 N 7 11 4 6 1010.1 1006.9 16.6
11/05:30pm 23.6 26.3 21.3 87 1.5 NW 9 13 5 7 1009.7 - 16.6
11/05:00pm 24.1 25.9 20.4 80 2.5 W 11 17 6 9 1009.5 - 16.6
11/04:30pm 24.4 27.9 21.1 82 2.2 N 4 7 2 4 1009.1 - 16.6
11/04:00pm 24.5 27.8 21.4 83 2.1 NNE 6 9 3 5 1008.8 - 16.6
11/03:30pm 23.7 26.4 21.4 87 1.5 ENE 9 11 5 6 1008.8 - 16.6
11/03:00pm 23.4 26.3 21.7 90 1.1 E 9 15 5 8 1009.1 1005.9 16.6
11/02:30pm 23.3 25.2 20.6 85 1.8 NNE 11 15 6 8 1009.0 - 11.6
11/02:00pm 26.0 28.2 20.3 71 3.8 E 9 11 5 6 1009.0 - 0.0
11/01:30pm 27.6 29.2 19.9 63 5.1 NNE 11 19 6 10 1009.2 - 0.0
11/01:00pm 28.7 29.6 19.3 56 6.2 N 13 19 7 10 1009.4 - 0.0
11/12:30pm 28.9 31.6 18.7 54 6.7 NNW 2 9 1 5 1009.9 - 0.0
11/12:00pm 28.7 30.4 18.5 54 6.7 NNE 7 13 4 7 1010.3 1007.1 0.0
11/11:30am 29.1 30.9 18.8 53 6.8 NNE 7 13 4 7 1010.6 - 0.0
11/11:00am 28.6 30.3 18.4 54 6.7 NNE 7 15 4 8 1011.0 - 0.0
11/10:30am 28.6 29.4 19.0 56 6.3 ESE 13 20 7 11 1011.3 - 0.0
11/10:00am 27.9 27.9 18.9 58 5.9 ESE 17 30 9 16 1011.4 - 0.0
11/09:30am 27.6 28.2 19.4 61 5.4 ESE 15 22 8 12 1011.7 - 0.0
11/09:00am 26.7 26.6 18.8 62 5.2 ESE 17 24 9 13 1011.7 1008.5 0.0
11/08:30am 25.7 27.0 19.3 67 4.2 ESE 11 17 6 9 1011.8 - 0.0
11/08:00am 24.8 28.3 19.6 73 3.4 CALM 0 6 0 3 1011.6 - 0.0
11/07:30am 23.7 27.3 19.8 79 2.6 CALM 0 6 0 3 1011.3 - 0.0
11/07:00am 22.4 26.4 20.5 89 1.3 CALM 0 0 0 0 1011.2 - 0.0
11/06:30am 21.7 25.4 20.7 94 0.7 N 2 7 1 4 1011.1 - 0.0
11/06:00am 21.7 25.7 20.5 93 0.8 CALM 0 0 0 0 1010.4 1007.2 0.0
11/05:30am 21.8 25.7 20.4 92 0.9 CALM 0 0 0 0 1010.1 - 0.0
11/05:00am 21.6 25.2 19.7 89 1.2 CALM 0 2 0 1 1009.8 - 0.0
11/04:30am 22.1 25.8 20.0 88 1.4 CALM 0 6 0 3 1009.5 - 0.0
11/04:00am 22.1 24.6 19.8 87 1.5 SE 6 7 3 4 1009.5 - 0.0
11/03:30am 22.3 24.9 20.0 87 1.5 SE 6 9 3 5 1009.4 - 0.0
11/03:00am 22.2 24.8 20.1 88 1.4 S 6 7 3 4 1009.6 1006.4 0.0
11/02:30am 21.8 24.2 19.7 88 1.4 S 6 7 3 4 1009.7 - 0.0
11/02:00am 21.9 23.8 19.8 88 1.4 SE 9 11 5 6 1009.4 - 0.0
11/01:30am 22.3 24.2 19.7 85 1.7 SE 9 13 5 7 1010.0 - 0.0
11/01:00am 22.6 24.4 19.6 83 2.0 SE 9 13 5 7 1010.3 - 0.0
11/12:30am 22.8 25.3 19.8 83 2.0 E 6 11 3 6 1010.9 - 0.0
11/12:00am 22.9 24.5 19.9 83 2.0 S 11 13 6 7 1011.3 1008.1 0.0
 
Date/Time
EST
Temp
°C
App
Temp
°C
Dew
Point
Rel
Hum
%
Delta-T
°C
Wind Press
QNH
hPa
Press
MSL
hPa
Rain
since 9 am
mm
Dir
 
Spd
km/h
Gust
km/h
Spd
kts
Gust
kts
10/11:30pm 23.3 24.7 19.5 79 2.5 SE 11 17 6 9 1011.3 - 0.0
10/11:00pm 23.7 24.3 19.4 77 2.8 SE 15 19 8 10 1011.5 - 0.0
10/10:30pm 24.0 25.9 19.7 77 2.8 SSE 9 13 5 7 1011.7 - 0.0
10/10:00pm 24.1 26.4 19.4 75 3.1 SE 6 9 3 5 1011.6 - 0.0
10/09:30pm 24.1 25.8 19.4 75 3.1 SSE 9 15 5 8 1011.3 - 0.0
10/09:00pm 23.9 25.9 20.0 79 2.6 SSE 9 13 5 7 1011.2 1008.0 0.0
10/08:30pm 23.9 25.1 19.8 78 2.7 SSE 13 19 7 10 1011.0 - 0.0
10/08:00pm 24.0 25.1 19.7 77 2.8 SSE 13 17 7 9 1011.0 - 0.0
10/07:30pm 24.1 24.7 19.4 75 3.1 SE 15 20 8 11 1010.7 - 0.0
10/07:00pm 24.4 25.6 19.9 76 3.0 ESE 13 20 7 11 1010.3 - 0.0
10/06:30pm 24.7 25.5 19.8 74 3.2 ESE 15 24 8 13 1010.1 - 0.0
10/06:00pm 24.6 25.8 20.7 79 2.6 SE 15 19 8 10 1009.8 1006.6 0.0
10/05:30pm 24.7 24.6 20.8 79 2.6 ESE 22 30 12 16 1009.3 - 0.0
10/05:00pm 26.8 27.2 19.9 66 4.6 SE 17 24 9 13 1008.8 - 0.0
10/04:30pm 27.2 26.5 19.5 62 5.1 SE 22 30 12 16 1008.7 - 0.0
10/04:00pm 27.5 27.8 20.8 67 4.5 SE 20 28 11 15 1008.4 - 0.0
10/03:30pm 26.5 26.6 20.3 68 4.1 ESE 20 32 11 17 1008.5 - 0.0
10/03:00pm 27.6 27.9 20.4 65 4.8 ESE 19 28 10 15 1008.7 1005.4 0.0
10/02:30pm 26.9 26.7 20.5 68 4.3 SSE 22 33 12 18 1009.1 - 0.0
10/02:00pm 28.1 28.2 19.9 61 5.5 SE 19 26 10 14 1009.2 - 0.0
10/01:30pm 28.4 28.8 19.9 60 5.7 ESE 17 24 9 13 1009.5 - 0.0
10/01:00pm 28.0 28.4 20.6 64 5.0 SSE 19 28 10 15 1010.0 - 0.0
10/12:30pm 27.6 28.2 20.2 64 4.9 SE 17 22 9 12 1010.4 - 0.0
10/12:00pm 26.8 26.7 19.9 66 4.6 SSE 20 33 11 18 1010.6 1007.4 0.0
10/11:30am 27.9 29.4 19.7 61 5.4 SE 11 17 6 9 1010.9 - 0.0
10/11:00am 27.0 27.6 19.4 63 5.0 SSE 15 20 8 11 1011.4 - 0.0
10/10:30am 26.0 26.1 19.9 69 4.0 SSE 19 26 10 14 1011.6 - 0.0
10/10:00am 27.2 28.0 19.8 64 4.9 SSE 15 22 8 12 1011.7 - 0.0
10/09:30am 27.4 28.3 19.2 61 5.4 SE 13 17 7 9 1011.8 - 0.0
10/09:00am 26.1 26.6 19.2 65 4.5 SE 15 22 8 12 1011.7 1008.5 0.2
10/08:30am 26.0 27.0 19.4 67 4.3 SE 13 20 7 11 1011.6 - 0.2
10/08:00am 25.3 26.6 20.1 73 3.4 SSE 13 20 7 11 1011.4 - 0.2
10/07:30am 24.1 26.7 20.4 80 2.5 SSE 7 13 4 7 1011.0 - 0.2
10/07:00am 23.3 25.8 20.2 83 2.0 SE 7 9 4 5 1010.7 - 0.2
10/06:30am 22.8 24.0 20.0 84 1.8 SSE 13 19 7 10 1010.4 - 0.2
10/06:00am 22.9 24.5 19.9 83 2.0 SSE 11 15 6 8 1010.0 1006.8 0.2
10/05:30am 22.9 25.0 20.2 85 1.8 S 9 13 5 7 1009.7 - 0.2
10/05:00am 23.0 24.3 20.1 84 1.9 SSE 13 17 7 9 1009.4 - 0.2
10/04:30am 23.0 24.7 20.1 84 1.9 S 11 15 6 8 1009.5 - 0.2
10/04:00am 23.0 24.3 20.1 84 1.9 S 13 15 7 8 1009.7 - 0.2
10/03:30am 23.0 24.3 20.1 84 1.9 S 13 17 7 9 1009.5 - 0.2
10/03:00am 22.8 24.9 20.1 85 1.8 S 9 13 5 7 1009.6 1006.4 0.2
10/02:30am 23.1 25.2 20.1 83 2.0 S 9 13 5 7 1009.8 - 0.2
10/02:00am 23.1 25.5 20.1 83 2.0 S 7 11 4 6 1009.9 - 0.2
10/01:30am 23.6 25.6 19.9 80 2.4 SSE 9 13 5 7 1010.0 - 0.2
10/01:00am 23.4 25.2 20.3 83 2.0 S 11 13 6 7 1010.5 - 0.2
10/12:30am 23.6 25.8 20.5 83 2.1 SSE 9 11 5 6 1011.0 - 0.2
10/12:00am 23.9 26.4 20.2 80 2.4 SE 7 9 4 5 1011.6 1008.4 0.2
 
Date/Time
EST
Temp
°C
App
Temp
°C
Dew
Point
Rel
Hum
%
Delta-T
°C
Wind Press
QNH
hPa
Press
MSL
hPa
Rain
since 9 am
mm
Dir
 
Spd
km/h
Gust
km/h
Spd
kts
Gust
kts
09/11:30pm 23.8 27.1 19.9 79 2.6 ESE 2 7 1 4 1011.9 - 0.2
09/11:00pm 24.1 26.5 20.0 78 2.7 SE 7 9 4 5 1012.0 - 0.2
09/10:30pm 24.2 26.2 19.9 77 2.8 SSE 9 15 5 8 1012.1 - 0.2
09/10:00pm 24.4 25.9 19.7 75 3.1 SSE 11 15 6 8 1012.1 - 0.2
09/09:30pm 24.8 25.8 19.4 72 3.5 SE 13 19 7 10 1011.6 - 0.2
09/09:00pm 25.1 26.0 20.1 74 3.3 SE 15 20 8 11 1011.5 1008.3 0.2
09/08:30pm 25.5 27.1 20.7 75 3.2 SE 13 20 7 11 1011.3 - 0.2
09/08:00pm 25.6 27.8 21.1 76 3.0 SSE 11 15 6 8 1011.1 - 0.2
09/07:30pm 25.7 27.4 20.9 75 3.2 SE 13 20 7 11 1010.3 - 0.2
09/07:00pm 26.0 28.6 21.2 75 3.2 SE 9 13 5 7 1010.0 - 0.2
09/06:30pm 26.4 29.6 21.2 73 3.5 SE 6 11 3 6 1009.9 - 0.2
09/06:00pm 26.8 28.6 21.1 71 3.8 SE 13 19 7 10 1009.4 1006.2 0.2
09/05:30pm 27.2 29.7 21.0 69 4.2 E 9 15 5 8 1009.2 - 0.2
09/05:00pm 27.2 29.7 21.0 69 4.2 E 9 15 5 8 1008.7 - 0.2
09/04:30pm 27.2 28.9 21.0 69 4.2 E 13 17 7 9 1008.5 - 0.2
09/04:00pm 26.8 28.6 21.1 71 3.8 SE 13 20 7 11 1008.8 - 0.2
09/03:30pm 27.1 28.6 21.2 70 4.0 ESE 15 28 8 15 1008.9 - 0.2
09/03:00pm 27.7 29.8 21.0 67 4.5 ESE 11 20 6 11 1009.3 1006.1 0.2
09/02:30pm 27.7 28.3 21.3 68 4.3 ESE 20 30 11 16 1009.6 - 0.2
09/02:00pm 27.4 26.9 21.4 70 4.1 SE 26 39 14 21 1009.9 - 0.2
09/01:30pm 28.3 28.5 21.3 65 4.7 SE 22 30 12 16 1009.9 - 0.2
09/01:00pm 30.5 30.1 21.0 57 6.5 SE 24 37 13 20 1010.2 - 0.2
09/11:00am 29.0 30.1 22.0 66 4.8 SE 19 24 10 13 1011.7 - 0.2
09/10:30am 28.1 30.0 22.1 70 4.1 S 15 22 8 12 1011.9 - 0.2
09/10:00am 27.6 30.0 22.3 73 3.6 SE 13 22 7 12 1012.3 - 0.2
09/09:30am 26.9 28.1 21.4 72 3.7 SE 17 24 9 13 1012.4 - 0.0
09/09:00am 26.4 27.6 21.4 74 3.4 SE 17 26 9 14 1012.1 1008.9 20.2
09/08:30am 26.6 28.3 21.6 74 3.4 SE 15 24 8 13 1011.8 - 20.2
09/08:00am 25.6 27.4 21.9 80 2.5 SE 15 20 8 11 1011.5 - 20.2
09/07:30am 24.2 25.4 21.5 85 1.8 SE 17 26 9 14 1011.4 - 20.2
09/07:00am 23.6 24.7 21.3 87 1.5 SSE 17 24 9 13 1011.3 - 20.2
09/06:30am 23.3 25.0 21.0 87 1.5 SSE 13 20 7 11 1011.0 - 20.2
09/06:00am 23.1 24.7 20.8 87 1.5 SE 13 19 7 10 1010.5 1007.3 20.2
09/05:30am 23.2 24.4 20.7 86 1.7 SSE 15 20 8 11 1010.2 - 20.2
09/05:00am 23.2 24.4 20.7 86 1.7 SSE 15 24 8 13 1010.0 - 20.2
09/04:30am 23.5 24.5 21.0 86 1.7 SSE 17 24 9 13 1010.0 - 20.2
09/04:00am 23.4 24.8 21.1 87 1.5 SSE 15 22 8 12 1010.0 - 20.2
09/03:30am 23.7 24.4 21.2 86 1.7 SSE 19 22 10 12 1010.3 - 20.2
09/03:00am 23.7 25.4 21.6 88 1.4 SSE 15 20 8 11 1010.6 1007.4 20.2
09/02:30am 23.4 28.9 23.4 100 0.0 CALM 0 0 0 0 1011.0 - 20.2
09/02:00am 23.6 29.2 23.6 100 0.0 CALM 0 0 0 0 1011.0 - 20.2
09/01:30am 23.5 29.1 23.5 100 0.0 CALM 0 0 0 0 1011.1 - 20.2
09/01:00am 23.5 28.7 23.5 100 0.0 ENE 2 7 1 4 1011.2 - 20.2
09/12:30am 23.5 29.1 23.5 100 0.0 CALM 0 6 0 3 1011.6 - 20.2
09/12:00am 23.4 27.6 23.4 100 0.0 W 7 9 4 5 1011.7 1008.5 20.2
 
Date/Time
EST
Temp
°C
App
Temp
°C
Dew
Point
Rel
Hum
%
Delta-T
°C
Wind Press
QNH
hPa
Press
MSL
hPa
Rain
since 9 am
mm
Dir
 
Spd
km/h
Gust
km/h
Spd
kts
Gust
kts
08/11:30pm 23.5 29.1 23.5 100 0.0 CALM 0 7 0 4 1012.4 - 20.2

Other Formats:

Comma delimited format used in spreadsheet applications
http://www.bom.gov.au/fwo/IDQ60801/IDQ60801.95286.axf

JavaScript Object Notation format (JSON) in row-major order
http://www.bom.gov.au/fwo/IDQ60801/IDQ60801.95286.json